Time;durP1;ratioP1;P1;durP2;ratioP2;P2;SDS_P1;SDS_P2;PMS_P1;PMS_P2;Temp;Humidity;BMP_temperature;BMP_pressure;BME280_temperature;BME280_humidity;BME280_pressure;Samples;Min_cycle;Max_cycle;Signal;HPM_P1;HPM_P2
2022/01/06 00:01:28;;;;;;;10.77;1.83;;;;;;;;;;5020231;28;20022;-73
2022/01/06 00:03:54;;;;;;;11.85;2.25;;;;;;;;;;5022665;28;20031;-73
2022/01/06 00:06:22;;;;;;;9.35;2.20;;;;;;;;;;5022028;28;20030;-73
2022/01/06 00:08:48;;;;;;;7.70;1.85;;;;;;;;;;5021253;28;20113;-73
2022/01/06 00:11:15;;;;;;;18.52;3.38;;;;;;;;;;5023630;28;20029;-73
2022/01/06 00:24:17;;;;;;;10.43;2.20;;;;;;;;;;5038773;28;20129;-73
2022/01/06 00:26:43;;;;;;;14.95;2.20;;;;;;;;;;5043445;28;20504;-73
2022/01/06 00:29:10;;;;;;;8.80;2.42;;;;;;;;;;5038247;28;20072;-73
2022/01/06 00:31:36;;;;;;;14.27;2.28;;;;;;;;;;5027023;28;20040;-73
2022/01/06 00:34:02;;;;;;;11.65;2.03;;;;;;;;;;5031575;28;20184;-73
2022/01/06 00:36:30;;;;;;;9.52;2.58;;;;;;;;;;5038095;28;20493;-73
2022/01/06 00:38:56;;;;;;;12.95;2.35;;;;;;;;;;5046679;28;20389;-73
2022/01/06 00:41:23;;;;;;;12.85;2.35;;;;;;;;;;5045137;28;20029;-73
2022/01/06 00:43:49;;;;;;;10.95;2.38;;;;;;;;;;5040907;28;20029;-73
2022/01/06 00:46:15;;;;;;;8.82;2.00;;;;;;;;;;5033636;28;20664;-73
2022/01/06 00:48:41;;;;;;;10.50;2.10;;;;;;;;;;5030015;28;20022;-73
2022/01/06 00:51:09;;;;;;;14.00;2.13;;;;;;;;;;5033261;28;20036;-73
2022/01/06 00:53:35;;;;;;;13.48;2.25;;;;;;;;;;5038225;28;20047;-73
2022/01/06 00:56:01;;;;;;;14.02;2.13;;;;;;;;;;5040484;28;20434;-73
2022/01/06 00:58:27;;;;;;;10.38;2.00;;;;;;;;;;5034446;28;20025;-72
2022/01/06 01:00:53;;;;;;;10.90;2.28;;;;;;;;;;5034800;28;20032;-73
2022/01/06 01:03:20;;;;;;;7.07;1.55;;;;;;;;;;5043914;28;20055;-72
2022/01/06 01:05:48;;;;;;;11.77;2.10;;;;;;;;;;5044808;28;20485;-72
2022/01/06 01:08:14;;;;;;;8.32;2.00;;;;;;;;;;5029353;28;20613;-72
2022/01/06 01:10:41;;;;;;;11.85;1.90;;;;;;;;;;5041698;28;20024;-72
2022/01/06 01:13:11;;;;;;;10.10;1.85;;;;;;;;;;5050277;28;20068;-72
2022/01/06 01:15:45;;;;;;;8.75;1.95;;;;;;;;;;5033236;28;20021;-72
2022/01/06 01:18:13;;;;;;;10.27;1.90;;;;;;;;;;5029926;28;20032;-72
2022/01/06 01:20:39;;;;;;;7.88;1.55;;;;;;;;;;5017816;28;20021;-72
2022/01/06 01:23:05;;;;;;;7.32;1.98;;;;;;;;;;5042376;28;20052;-72
2022/01/06 01:25:32;;;;;;;6.47;1.70;;;;;;;;;;5037109;28;20477;-72
2022/01/06 01:27:58;;;;;;;5.65;1.98;;;;;;;;;;5035831;28;20509;-72
2022/01/06 01:30:31;;;;;;;10.38;1.70;;;;;;;;;;5039088;28;20072;-72
2022/01/06 01:32:59;;;;;;;11.13;2.30;;;;;;;;;;5030473;28;20029;-72
2022/01/06 01:35:30;;;;;;;8.85;2.15;;;;;;;;;;5028930;28;20026;-72
2022/01/06 01:37:57;;;;;;;8.15;2.25;;;;;;;;;;5039507;28;20023;-72
2022/01/06 01:40:23;;;;;;;5.60;1.45;;;;;;;;;;5042324;28;20029;-72
2022/01/06 01:42:49;;;;;;;12.30;1.98;;;;;;;;;;5031113;28;20021;-74
2022/01/06 01:45:16;;;;;;;6.85;1.73;;;;;;;;;;5029120;28;20524;-71
2022/01/06 01:47:45;;;;;;;8.73;1.73;;;;;;;;;;5033922;28;20037;-71
2022/01/06 01:50:16;;;;;;;5.72;1.45;;;;;;;;;;5030324;28;20108;-72
2022/01/06 01:52:46;;;;;;;10.57;1.92;;;;;;;;;;5037811;28;20038;-72
2022/01/06 01:55:26;;;;;;;5.07;1.73;;;;;;;;;;5010880;28;20037;-72
2022/01/06 01:57:52;;;;;;;8.02;1.52;;;;;;;;;;5033159;28;20183;-72
2022/01/06 02:00:20;;;;;;;8.38;1.80;;;;;;;;;;5040576;28;20013;-71
2022/01/06 02:02:46;;;;;;;5.70;1.40;;;;;;;;;;5034509;28;20381;-72
2022/01/06 02:05:12;;;;;;;6.63;2.00;;;;;;;;;;5027602;28;20031;-72
2022/01/06 02:07:39;;;;;;;13.35;1.60;;;;;;;;;;5047388;28;20504;-72
2022/01/06 02:10:05;;;;;;;9.68;2.08;;;;;;;;;;5035756;28;20437;-72
2022/01/06 02:12:36;;;;;;;7.25;1.60;;;;;;;;;;5041082;28;20044;-73
2022/01/06 02:15:03;;;;;;;6.15;1.52;;;;;;;;;;5037620;28;20052;-72
2022/01/06 02:17:29;;;;;;;6.93;2.05;;;;;;;;;;5041537;28;20048;-72
2022/01/06 02:19:58;;;;;;;12.77;2.00;;;;;;;;;;5025630;28;20053;-72
2022/01/06 02:22:25;;;;;;;9.07;1.75;;;;;;;;;;5038260;28;20485;-73
2022/01/06 02:24:52;;;;;;;7.50;2.03;;;;;;;;;;5040653;28;20070;-72
2022/01/06 02:27:20;;;;;;;10.43;2.00;;;;;;;;;;5028144;28;20683;-72
2022/01/06 02:29:47;;;;;;;9.57;1.52;;;;;;;;;;5039919;28;20047;-73
2022/01/06 02:32:16;;;;;;;13.13;1.90;;;;;;;;;;5040972;28;20052;-72
2022/01/06 02:34:43;;;;;;;10.38;2.08;;;;;;;;;;5037792;28;20113;-72
2022/01/06 02:37:09;;;;;;;7.03;1.50;;;;;;;;;;5043463;28;20037;-72
2022/01/06 02:39:35;;;;;;;8.68;1.88;;;;;;;;;;5039969;28;20032;-72
2022/01/06 02:42:01;;;;;;;12.82;2.10;;;;;;;;;;5033050;28;20026;-72
2022/01/06 02:44:28;;;;;;;10.00;1.77;;;;;;;;;;5024812;28;20528;-72
2022/01/06 02:46:54;;;;;;;7.57;1.42;;;;;;;;;;5024492;28;20714;-72
2022/01/06 02:49:20;;;;;;;10.60;1.45;;;;;;;;;;5027445;28;20446;-72
2022/01/06 02:51:47;;;;;;;7.13;1.48;;;;;;;;;;5023862;28;20036;-72
2022/01/06 02:54:14;;;;;;;8.52;1.73;;;;;;;;;;5033722;28;20083;-72
2022/01/06 02:56:43;;;;;;;8.35;1.50;;;;;;;;;;5028777;28;20074;-72
2022/01/06 02:59:09;;;;;;;8.70;1.30;;;;;;;;;;5040187;28;20053;-72
2022/01/06 03:01:42;;;;;;;11.20;2.20;;;;;;;;;;5035114;28;20025;-72
2022/01/06 03:04:09;;;;;;;7.50;1.70;;;;;;;;;;5029307;28;20021;-72
2022/01/06 03:06:35;;;;;;;6.30;1.58;;;;;;;;;;5040205;28;20547;-73
2022/01/06 03:09:01;;;;;;;6.82;1.38;;;;;;;;;;5038026;28;20485;-72
2022/01/06 03:11:27;;;;;;;10.45;1.80;;;;;;;;;;5031252;28;20087;-72
2022/01/06 03:13:54;;;;;;;6.28;1.40;;;;;;;;;;5038139;28;20754;-72
2022/01/06 03:16:21;;;;;;;9.15;1.75;;;;;;;;;;5035453;28;20406;-73
2022/01/06 03:18:47;;;;;;;9.88;1.55;;;;;;;;;;5037058;28;20039;-72
2022/01/06 03:21:13;;;;;;;11.63;2.05;;;;;;;;;;5024976;28;20033;-72
2022/01/06 03:23:39;;;;;;;6.07;1.65;;;;;;;;;;5060692;28;20052;-72
2022/01/06 03:26:06;;;;;;;4.43;1.73;;;;;;;;;;5027225;28;20029;-72
2022/01/06 03:28:32;;;;;;;9.23;1.70;;;;;;;;;;5024216;28;20033;-72
2022/01/06 03:30:58;;;;;;;7.80;1.90;;;;;;;;;;5024065;28;20033;-72
2022/01/06 03:33:25;;;;;;;9.05;1.65;;;;;;;;;;5023890;28;20763;-72
2022/01/06 03:35:51;;;;;;;8.95;1.75;;;;;;;;;;5023588;28;20029;-72
2022/01/06 03:38:17;;;;;;;10.32;1.75;;;;;;;;;;5026266;28;20033;-72
2022/01/06 03:40:43;;;;;;;6.50;1.55;;;;;;;;;;5042898;28;20099;-72
2022/01/06 03:43:10;;;;;;;9.13;1.95;;;;;;;;;;5025238;28;20034;-72
2022/01/06 03:45:36;;;;;;;10.77;1.65;;;;;;;;;;5022439;28;20083;-72
2022/01/06 03:48:03;;;;;;;5.88;1.20;;;;;;;;;;5023785;28;20029;-72
2022/01/06 03:50:30;;;;;;;8.90;1.83;;;;;;;;;;5042412;28;20028;-72
2022/01/06 03:52:57;;;;;;;5.75;2.03;;;;;;;;;;5038220;28;20450;-72
2022/01/06 03:55:24;;;;;;;9.15;1.60;;;;;;;;;;5039727;28;20728;-72
2022/01/06 03:57:50;;;;;;;9.88;1.67;;;;;;;;;;5021481;28;20041;-72
2022/01/06 04:00:17;;;;;;;9.38;1.60;;;;;;;;;;5039970;28;20025;-72
2022/01/06 04:02:44;;;;;;;9.48;1.80;;;;;;;;;;5027671;28;20424;-72
2022/01/06 04:05:10;;;;;;;5.95;1.73;;;;;;;;;;5033741;28;20037;-72
2022/01/06 04:07:37;;;;;;;8.90;1.65;;;;;;;;;;5026409;28;20086;-72
2022/01/06 04:10:04;;;;;;;7.57;1.70;;;;;;;;;;5027266;28;20033;-72
2022/01/06 04:12:33;;;;;;;7.32;1.40;;;;;;;;;;5034529;28;20029;-72
2022/01/06 04:14:59;;;;;;;8.07;1.90;;;;;;;;;;5005190;28;20041;-72
2022/01/06 04:17:26;;;;;;;9.05;1.83;;;;;;;;;;5030517;28;20470;-72
2022/01/06 04:19:52;;;;;;;6.80;1.58;;;;;;;;;;5045997;28;20902;-72
2022/01/06 04:22:18;;;;;;;8.07;1.50;;;;;;;;;;5020753;28;20049;-72
2022/01/06 04:24:45;;;;;;;8.02;1.80;;;;;;;;;;5019963;28;20037;-72
2022/01/06 04:27:12;;;;;;;7.90;1.50;;;;;;;;;;5027163;28;20094;-72
2022/01/06 04:29:38;;;;;;;6.50;1.88;;;;;;;;;;5036627;28;20029;-72
2022/01/06 04:32:05;;;;;;;6.00;1.65;;;;;;;;;;5034522;28;20060;-72
2022/01/06 04:34:31;;;;;;;6.88;1.67;;;;;;;;;;5025569;28;20041;-72
2022/01/06 04:36:59;;;;;;;9.43;1.55;;;;;;;;;;5036126;28;20674;-72
2022/01/06 04:39:25;;;;;;;9.20;1.52;;;;;;;;;;5037520;28;20120;-72
2022/01/06 04:41:51;;;;;;;8.88;1.75;;;;;;;;;;5037977;28;20057;-72
2022/01/06 04:44:18;;;;;;;6.78;1.08;;;;;;;;;;5036802;28;20025;-72
2022/01/06 04:46:44;;;;;;;8.45;1.58;;;;;;;;;;5035042;28;20075;-73
2022/01/06 04:49:10;;;;;;;8.15;1.63;;;;;;;;;;5028466;28;20647;-72
2022/01/06 04:51:37;;;;;;;7.88;1.30;;;;;;;;;;5029870;28;20026;-72
2022/01/06 04:54:03;;;;;;;7.07;2.20;;;;;;;;;;5000486;28;20046;-72
2022/01/06 04:56:36;;;;;;;10.85;1.85;;;;;;;;;;5032091;28;20029;-72
2022/01/06 04:59:02;;;;;;;7.20;2.20;;;;;;;;;;5037805;28;20032;-72
2022/01/06 05:01:28;;;;;;;8.13;1.92;;;;;;;;;;5035751;28;20028;-72
2022/01/06 05:03:55;;;;;;;7.20;1.52;;;;;;;;;;5022991;28;20022;-76
2022/01/06 05:06:21;;;;;;;5.93;1.50;;;;;;;;;;5022668;28;20037;-72
2022/01/06 05:08:47;;;;;;;9.20;2.03;;;;;;;;;;5027498;28;20028;-72
2022/01/06 05:11:13;;;;;;;7.45;1.65;;;;;;;;;;5037902;28;20024;-72
2022/01/06 05:13:39;;;;;;;9.23;1.55;;;;;;;;;;5039228;28;20037;-72
2022/01/06 05:16:05;;;;;;;7.05;1.30;;;;;;;;;;5039944;28;20028;-72
2022/01/06 05:18:31;;;;;;;8.15;1.83;;;;;;;;;;5040494;28;20028;-72
2022/01/06 05:20:58;;;;;;;10.50;1.75;;;;;;;;;;5044855;28;20027;-72
2022/01/06 05:23:24;;;;;;;8.15;1.70;;;;;;;;;;5015474;28;20057;-72
2022/01/06 05:25:50;;;;;;;8.35;1.50;;;;;;;;;;5057969;28;20021;-72
2022/01/06 05:28:16;;;;;;;8.80;1.60;;;;;;;;;;5038931;28;20053;-72
2022/01/06 05:30:42;;;;;;;6.45;1.42;;;;;;;;;;5027922;28;20083;-72
2022/01/06 05:33:10;;;;;;;10.05;1.52;;;;;;;;;;5034028;28;20655;-72
2022/01/06 05:35:36;;;;;;;4.28;1.42;;;;;;;;;;5022555;28;20658;-72
2022/01/06 05:38:02;;;;;;;8.10;1.50;;;;;;;;;;5024106;28;20033;-72
2022/01/06 05:40:28;;;;;;;5.97;1.20;;;;;;;;;;5023610;28;20025;-72
2022/01/06 05:42:56;;;;;;;8.80;1.77;;;;;;;;;;5022225;28;20101;-72
2022/01/06 05:45:23;;;;;;;4.53;1.92;;;;;;;;;;5024037;28;20072;-72
2022/01/06 05:47:49;;;;;;;6.65;1.67;;;;;;;;;;5039401;28;20052;-72
2022/01/06 05:50:15;;;;;;;7.55;1.83;;;;;;;;;;5040428;28;20104;-72
2022/01/06 05:52:41;;;;;;;7.05;1.40;;;;;;;;;;5037591;28;20798;-72
2022/01/06 05:55:08;;;;;;;8.63;1.77;;;;;;;;;;5038594;28;20043;-72
2022/01/06 05:57:34;;;;;;;8.95;1.30;;;;;;;;;;5022632;28;20030;-72
2022/01/06 06:00:00;;;;;;;7.50;1.35;;;;;;;;;;5038698;28;20039;-72
2022/01/06 06:02:27;;;;;;;6.63;1.33;;;;;;;;;;5024633;28;20104;-72
2022/01/06 06:04:53;;;;;;;7.70;1.92;;;;;;;;;;5038515;28;20068;-72
2022/01/06 06:07:20;;;;;;;8.13;1.20;;;;;;;;;;5039379;28;20044;-72
2022/01/06 06:09:46;;;;;;;9.90;1.70;;;;;;;;;;5039406;28;20523;-72
2022/01/06 06:12:12;;;;;;;7.25;1.83;;;;;;;;;;5029037;28;20117;-72
2022/01/06 06:14:39;;;;;;;12.30;1.95;;;;;;;;;;5023007;28;20041;-72
2022/01/06 06:17:05;;;;;;;10.18;1.33;;;;;;;;;;5022250;28;20036;-72
2022/01/06 06:19:31;;;;;;;12.32;1.75;;;;;;;;;;5026030;28;20024;-72
2022/01/06 06:21:57;;;;;;;5.93;1.30;;;;;;;;;;5028525;28;20032;-72
2022/01/06 06:24:24;;;;;;;7.03;1.67;;;;;;;;;;5030618;28;20047;-72
2022/01/06 06:26:50;;;;;;;9.05;1.58;;;;;;;;;;5022003;28;20072;-72
2022/01/06 06:29:17;;;;;;;6.78;1.35;;;;;;;;;;5038615;28;20021;-72
2022/01/06 06:31:43;;;;;;;6.43;1.67;;;;;;;;;;5033599;28;20030;-72
2022/01/06 06:34:10;;;;;;;5.82;1.50;;;;;;;;;;5028441;28;20044;-72
2022/01/06 06:36:37;;;;;;;9.48;1.77;;;;;;;;;;5039778;28;20020;-72
2022/01/06 06:39:03;;;;;;;12.10;1.70;;;;;;;;;;5028003;28;20044;-72
2022/01/06 06:41:29;;;;;;;10.05;2.20;;;;;;;;;;5022105;28;20021;-72
2022/01/06 06:43:56;;;;;;;6.85;1.60;;;;;;;;;;5029438;28;20022;-72
2022/01/06 06:46:22;;;;;;;12.43;2.10;;;;;;;;;;5036643;28;20027;-73
2022/01/06 06:48:48;;;;;;;11.48;2.00;;;;;;;;;;5023901;28;20393;-72
2022/01/06 06:51:15;;;;;;;6.00;1.48;;;;;;;;;;5028939;28;20165;-73
2022/01/06 06:53:41;;;;;;;13.77;1.85;;;;;;;;;;5056506;28;20435;-72
2022/01/06 06:56:07;;;;;;;14.95;2.83;;;;;;;;;;5034808;28;20095;-72
2022/01/06 06:58:34;;;;;;;7.45;1.55;;;;;;;;;;5027373;28;20036;-72
2022/01/06 07:01:00;;;;;;;9.00;1.63;;;;;;;;;;5021306;28;20029;-72
2022/01/06 07:03:26;;;;;;;9.13;1.77;;;;;;;;;;5036356;28;20045;-73
2022/01/06 07:05:53;;;;;;;9.07;1.70;;;;;;;;;;5031540;28;20140;-72
2022/01/06 07:08:20;;;;;;;9.85;1.95;;;;;;;;;;5035967;28;20067;-72
2022/01/06 07:10:46;;;;;;;17.75;3.25;;;;;;;;;;5027967;28;20079;-72
2022/01/06 07:13:16;;;;;;;9.63;2.00;;;;;;;;;;5038639;28;20058;-74
2022/01/06 07:15:46;;;;;;;13.48;1.80;;;;;;;;;;5027167;28;20705;-74
2022/01/06 07:18:13;;;;;;;8.27;1.80;;;;;;;;;;5016739;28;20792;-73
2022/01/06 07:20:39;;;;;;;10.82;1.80;;;;;;;;;;5020660;28;20112;-73
2022/01/06 07:23:05;;;;;;;8.07;1.80;;;;;;;;;;5003838;28;20132;-73
2022/01/06 07:25:31;;;;;;;8.85;1.95;;;;;;;;;;5023756;28;20036;-73
2022/01/06 07:27:57;;;;;;;9.88;1.73;;;;;;;;;;5025520;28;20163;-73
2022/01/06 07:30:24;;;;;;;19.98;2.38;;;;;;;;;;5036529;28;20051;-73
2022/01/06 07:32:51;;;;;;;9.57;1.77;;;;;;;;;;5056476;28;20091;-73
2022/01/06 07:35:18;;;;;;;11.00;2.05;;;;;;;;;;5032827;28;20037;-73
2022/01/06 07:37:44;;;;;;;10.88;1.92;;;;;;;;;;5031900;28;20016;-73
2022/01/06 07:40:12;;;;;;;16.33;1.98;;;;;;;;;;5025070;28;20025;-74
2022/01/06 07:42:38;;;;;;;7.97;1.90;;;;;;;;;;5029536;28;20021;-73
2022/01/06 07:45:05;;;;;;;12.98;3.20;;;;;;;;;;5034960;28;20110;-73
2022/01/06 07:47:33;;;;;;;7.60;2.33;;;;;;;;;;5021514;28;20624;-74
2022/01/06 07:49:59;;;;;;;15.88;1.95;;;;;;;;;;5027240;28;20807;-73
2022/01/06 07:52:26;;;;;;;14.70;1.83;;;;;;;;;;5031085;28;20025;-73
2022/01/06 07:54:52;;;;;;;10.52;3.13;;;;;;;;;;5036763;28;20041;-73
2022/01/06 07:57:18;;;;;;;10.18;2.53;;;;;;;;;;5020357;28;20022;-73
2022/01/06 07:59:44;;;;;;;25.38;11.43;;;;;;;;;;5035642;28;20029;-73
2022/01/06 08:02:10;;;;;;;12.90;3.53;;;;;;;;;;5016593;28;20022;-73
2022/01/06 08:04:37;;;;;;;14.48;2.75;;;;;;;;;;5051577;28;20090;-74
2022/01/06 08:07:03;;;;;;;8.00;2.45;;;;;;;;;;5059844;28;20036;-74
2022/01/06 08:09:29;;;;;;;9.82;1.85;;;;;;;;;;5038346;28;20082;-73
2022/01/06 08:11:56;;;;;;;8.25;2.00;;;;;;;;;;5038129;28;20044;-73
2022/01/06 08:14:22;;;;;;;14.35;2.35;;;;;;;;;;5007754;28;20037;-73
2022/01/06 08:16:48;;;;;;;10.60;2.90;;;;;;;;;;5038922;28;20150;-74
2022/01/06 08:19:15;;;;;;;8.95;1.95;;;;;;;;;;5012202;28;20515;-74
2022/01/06 08:21:42;;;;;;;11.63;3.33;;;;;;;;;;5022794;28;21334;-73
2022/01/06 08:24:08;;;;;;;13.75;5.30;;;;;;;;;;5027761;28;20045;-72
2022/01/06 08:26:34;;;;;;;23.58;10.25;;;;;;;;;;5019276;28;20029;-73
2022/01/06 08:29:00;;;;;;;13.68;2.83;;;;;;;;;;5028436;28;20025;-73
2022/01/06 08:31:26;;;;;;;8.88;1.90;;;;;;;;;;5021910;28;20026;-73
2022/01/06 08:33:52;;;;;;;9.88;2.55;;;;;;;;;;5023708;28;20041;-72
2022/01/06 08:36:18;;;;;;;22.52;4.43;;;;;;;;;;5036435;28;20028;-73
2022/01/06 08:38:45;;;;;;;11.45;2.25;;;;;;;;;;5044087;28;20021;-73
2022/01/06 08:41:11;;;;;;;9.07;2.50;;;;;;;;;;5051328;28;20508;-73
2022/01/06 08:43:37;;;;;;;12.55;2.42;;;;;;;;;;5026423;28;20087;-74
2022/01/06 08:46:03;;;;;;;10.55;2.83;;;;;;;;;;5037358;28;20148;-73
2022/01/06 08:48:31;;;;;;;11.75;2.85;;;;;;;;;;5029556;28;20121;-73
2022/01/06 08:50:57;;;;;;;15.88;5.38;;;;;;;;;;5041437;28;20032;-73
2022/01/06 08:53:24;;;;;;;10.35;3.72;;;;;;;;;;5033712;28;20044;-72
2022/01/06 08:55:50;;;;;;;11.52;3.17;;;;;;;;;;5059545;28;20064;-74
2022/01/06 08:58:17;;;;;;;17.90;8.80;;;;;;;;;;5033234;28;20025;-74
2022/01/06 09:00:44;;;;;;;26.08;10.20;;;;;;;;;;5030245;28;20287;-73
2022/01/06 09:03:10;;;;;;;18.45;3.65;;;;;;;;;;5035133;28;20112;-74
2022/01/06 09:05:37;;;;;;;13.13;3.33;;;;;;;;;;5021837;28;20025;-73
2022/01/06 09:08:04;;;;;;;13.18;3.35;;;;;;;;;;5040064;28;20048;-73
2022/01/06 09:10:33;;;;;;;15.40;3.10;;;;;;;;;;5016555;28;20493;-73
2022/01/06 09:12:59;;;;;;;14.38;2.90;;;;;;;;;;5045744;28;20033;-73
2022/01/06 09:15:26;;;;;;;12.55;2.80;;;;;;;;;;5035197;28;20029;-73
2022/01/06 09:17:52;;;;;;;10.50;3.40;;;;;;;;;;5034807;28;20100;-73
2022/01/06 09:20:18;;;;;;;16.25;4.07;;;;;;;;;;5037015;28;20033;-73
2022/01/06 09:22:45;;;;;;;15.05;5.75;;;;;;;;;;5042834;28;20433;-73
2022/01/06 09:25:13;;;;;;;15.73;4.85;;;;;;;;;;5036629;28;20071;-73
2022/01/06 09:27:39;;;;;;;14.88;4.38;;;;;;;;;;5031324;28;20037;-73
2022/01/06 09:30:06;;;;;;;12.68;3.38;;;;;;;;;;5024524;28;20022;-72
2022/01/06 09:32:32;;;;;;;15.25;4.13;;;;;;;;;;5041796;28;20039;-73
2022/01/06 09:34:59;;;;;;;15.02;4.80;;;;;;;;;;5035312;28;20032;-74
2022/01/06 09:37:26;;;;;;;15.27;4.20;;;;;;;;;;5036616;28;20017;-73
2022/01/06 09:39:52;;;;;;;16.63;4.32;;;;;;;;;;5044531;28;20029;-73
2022/01/06 09:42:19;;;;;;;19.30;4.10;;;;;;;;;;5042483;28;20029;-73
2022/01/06 09:44:48;;;;;;;15.40;5.60;;;;;;;;;;5029577;28;20091;-73
2022/01/06 09:47:14;;;;;;;12.90;4.25;;;;;;;;;;5044701;28;20115;-73
2022/01/06 09:49:44;;;;;;;16.73;4.43;;;;;;;;;;5042192;28;20067;-72
2022/01/06 09:52:10;;;;;;;15.68;4.28;;;;;;;;;;5039364;28;20032;-72
2022/01/06 09:54:38;;;;;;;14.00;3.97;;;;;;;;;;5028332;28;20436;-72
2022/01/06 09:57:05;;;;;;;16.70;4.78;;;;;;;;;;5024322;28;20100;-72
2022/01/06 09:59:31;;;;;;;11.00;4.03;;;;;;;;;;5022419;28;20078;-74
2022/01/06 10:01:58;;;;;;;13.32;4.00;;;;;;;;;;5024187;28;20074;-76
2022/01/06 10:04:28;;;;;;;19.55;4.75;;;;;;;;;;5023986;28;20374;-72
2022/01/06 10:07:02;;;;;;;16.42;5.88;;;;;;;;;;5031765;28;20017;-72
2022/01/06 10:09:28;;;;;;;25.48;8.57;;;;;;;;;;5034058;28;20029;-73
2022/01/06 10:11:56;;;;;;;22.30;7.80;;;;;;;;;;5036309;28;20843;-73
2022/01/06 10:14:31;;;;;;;23.30;8.25;;;;;;;;;;5030866;28;20120;-73
2022/01/06 10:16:57;;;;;;;20.55;6.90;;;;;;;;;;5030453;28;20124;-75
2022/01/06 10:19:23;;;;;;;14.40;4.30;;;;;;;;;;5034929;28;20454;-72
2022/01/06 10:21:56;;;;;;;12.77;3.40;;;;;;;;;;5008302;28;20025;-72
2022/01/06 10:24:23;;;;;;;20.40;4.47;;;;;;;;;;5009437;28;20371;-72
2022/01/06 10:26:58;;;;;;;13.60;5.13;;;;;;;;;;5024154;28;20068;-73
2022/01/06 10:29:29;;;;;;;14.45;4.07;;;;;;;;;;5036158;28;20033;-74
2022/01/06 10:32:09;;;;;;;16.63;4.63;;;;;;;;;;5018250;28;20159;-73
2022/01/06 10:34:36;;;;;;;16.70;4.70;;;;;;;;;;5027319;28;20030;-75
2022/01/06 10:37:03;;;;;;;16.27;4.95;;;;;;;;;;5029284;28;20055;-74
2022/01/06 10:39:40;;;;;;;13.48;4.45;;;;;;;;;;5018315;28;20103;-74
2022/01/06 10:42:06;;;;;;;15.10;4.68;;;;;;;;;;5033334;28;20028;-74
2022/01/06 10:44:33;;;;;;;24.77;3.83;;;;;;;;;;5032126;28;20048;-80
2022/01/06 10:46:59;;;;;;;14.98;3.92;;;;;;;;;;5041426;28;20513;-72
2022/01/06 10:49:25;;;;;;;33.92;5.63;;;;;;;;;;5032381;28;20025;-75
2022/01/06 10:51:51;;;;;;;17.70;4.63;;;;;;;;;;5024075;28;20055;-73
2022/01/06 10:54:21;;;;;;;19.63;4.20;;;;;;;;;;5030315;28;20107;-73
2022/01/06 10:57:01;;;;;;;13.07;3.92;;;;;;;;;;5031915;28;20031;-73
2022/01/06 10:59:34;;;;;;;8.70;3.38;;;;;;;;;;5036618;28;20044;-73
2022/01/06 11:02:01;;;;;;;17.25;5.57;;;;;;;;;;5041971;28;20021;-74
2022/01/06 11:04:28;;;;;;;18.88;4.75;;;;;;;;;;5037002;28;20025;-74
2022/01/06 11:06:54;;;;;;;20.92;4.70;;;;;;;;;;5034719;28;20116;-73
2022/01/06 11:09:21;;;;;;;17.08;4.28;;;;;;;;;;5024812;28;20523;-74
2022/01/06 11:14:26;;;;;;;18.67;4.90;;;;;;;;;;5024568;28;20038;-75
2022/01/06 11:16:52;;;;;;;16.98;4.30;;;;;;;;;;5025989;28;20148;-74
2022/01/06 11:19:22;;;;;;;14.70;4.32;;;;;;;;;;5031226;28;20037;-74
2022/01/06 11:21:49;;;;;;;18.90;3.78;;;;;;;;;;5035196;28;20029;-74
2022/01/06 11:24:15;;;;;;;14.60;3.30;;;;;;;;;;5011978;28;20606;-74
2022/01/06 11:26:44;;;;;;;14.55;4.25;;;;;;;;;;5026326;28;20026;-74
2022/01/06 11:29:12;;;;;;;20.33;4.25;;;;;;;;;;5028838;28;20025;-73
2022/01/06 11:31:40;;;;;;;16.63;4.43;;;;;;;;;;5025209;28;20557;-74
2022/01/06 11:34:14;;;;;;;17.55;5.10;;;;;;;;;;5036180;28;20036;-73
2022/01/06 11:36:40;;;;;;;23.80;6.55;;;;;;;;;;5010452;28;20025;-73
2022/01/06 11:39:08;;;;;;;19.30;5.20;;;;;;;;;;5022362;28;20151;-73
2022/01/06 11:41:35;;;;;;;23.30;4.75;;;;;;;;;;5034001;28;20044;-73
2022/01/06 11:44:02;;;;;;;24.35;5.07;;;;;;;;;;5041081;28;20592;-74
2022/01/06 11:46:29;;;;;;;22.23;7.10;;;;;;;;;;5041026;28;20035;-73
2022/01/06 11:48:57;;;;;;;18.45;5.45;;;;;;;;;;5027915;28;20083;-74
2022/01/06 11:51:28;;;;;;;18.05;4.63;;;;;;;;;;5025933;28;20039;-73
2022/01/06 11:53:55;;;;;;;23.77;5.97;;;;;;;;;;5022551;28;20044;-74
2022/01/06 11:56:23;;;;;;;21.10;4.47;;;;;;;;;;5041292;28;20028;-73
2022/01/06 11:59:04;;;;;;;16.83;3.92;;;;;;;;;;5039713;28;20017;-73
2022/01/06 12:01:45;;;;;;;21.33;4.70;;;;;;;;;;5025376;28;20108;-74
2022/01/06 12:04:16;;;;;;;14.70;3.40;;;;;;;;;;5024180;28;20034;-74
2022/01/06 12:06:43;;;;;;;19.58;5.07;;;;;;;;;;5030089;28;20109;-73
2022/01/06 12:09:16;;;;;;;15.73;4.72;;;;;;;;;;5028315;28;20608;-74
2022/01/06 12:11:45;;;;;;;22.85;4.85;;;;;;;;;;5022201;28;20037;-73
2022/01/06 12:14:12;;;;;;;19.60;4.22;;;;;;;;;;5047178;28;20044;-74
2022/01/06 12:16:43;;;;;;;26.40;4.85;;;;;;;;;;5006468;28;20432;-74
2022/01/06 12:19:16;;;;;;;16.98;3.53;;;;;;;;;;5021039;28;20029;-74
2022/01/06 12:21:42;;;;;;;21.13;4.78;;;;;;;;;;5031953;28;20501;-74
2022/01/06 12:24:09;;;;;;;17.23;4.43;;;;;;;;;;5019194;28;20128;-74
2022/01/06 12:26:36;;;;;;;17.55;3.60;;;;;;;;;;5040346;28;20103;-74
2022/01/06 12:29:04;;;;;;;12.18;4.13;;;;;;;;;;5030086;28;20452;-73
2022/01/06 12:31:31;;;;;;;23.58;5.03;;;;;;;;;;5021965;28;20136;-73
2022/01/06 12:34:00;;;;;;;24.95;3.95;;;;;;;;;;5031227;28;20033;-73
2022/01/06 12:36:28;;;;;;;27.13;6.03;;;;;;;;;;5029739;28;20029;-74
2022/01/06 12:38:54;;;;;;;32.78;9.45;;;;;;;;;;5030189;28;20647;-74
2022/01/06 12:41:30;;;;;;;20.20;6.60;;;;;;;;;;5026317;28;20017;-74
2022/01/06 12:43:57;;;;;;;20.25;5.47;;;;;;;;;;5021601;28;20026;-77
2022/01/06 12:46:24;;;;;;;19.67;5.20;;;;;;;;;;5024467;28;20025;-73
2022/01/06 12:48:52;;;;;;;45.00;21.00;;;;;;;;;;5020824;28;20759;-74
2022/01/06 12:51:19;;;;;;;19.90;10.15;;;;;;;;;;5025778;28;20021;-74
2022/01/06 12:53:46;;;;;;;24.40;10.18;;;;;;;;;;5027727;28;20076;-74
2022/01/06 12:56:31;;;;;;;19.55;8.07;;;;;;;;;;5010961;28;20543;-73
2022/01/06 12:58:58;;;;;;;17.27;6.82;;;;;;;;;;5025102;28;20273;-73
2022/01/06 13:01:25;;;;;;;21.95;6.70;;;;;;;;;;5021210;28;20026;-73
2022/01/06 13:03:53;;;;;;;25.33;5.75;;;;;;;;;;5021121;28;20030;-73
2022/01/06 13:06:21;;;;;;;22.63;6.70;;;;;;;;;;5027703;28;20048;-75
2022/01/06 13:08:51;;;;;;;20.52;5.60;;;;;;;;;;5020144;28;20037;-74
2022/01/06 13:11:21;;;;;;;22.23;5.50;;;;;;;;;;5029575;28;20048;-74
2022/01/06 13:13:52;;;;;;;18.30;5.05;;;;;;;;;;5021438;28;20125;-75
2022/01/06 13:16:22;;;;;;;17.90;5.10;;;;;;;;;;5018522;28;20087;-72
2022/01/06 13:18:54;;;;;;;17.73;4.88;;;;;;;;;;5022217;28;20029;-74
2022/01/06 13:21:31;;;;;;;20.45;5.00;;;;;;;;;;5035659;28;20036;-74
2022/01/06 13:23:58;;;;;;;15.55;4.10;;;;;;;;;;5039081;28;20048;-74
2022/01/06 13:26:30;;;;;;;15.63;3.92;;;;;;;;;;5039551;28;20029;-76
2022/01/06 13:28:57;;;;;;;18.73;5.85;;;;;;;;;;5032169;28;20033;-74
2022/01/06 13:31:23;;;;;;;22.83;4.90;;;;;;;;;;5027784;28;20710;-74
2022/01/06 13:33:57;;;;;;;19.45;5.80;;;;;;;;;;5024633;28;20120;-74
2022/01/06 13:36:32;;;;;;;15.50;4.72;;;;;;;;;;5023768;28;20029;-76
2022/01/06 13:39:12;;;;;;;17.23;4.22;;;;;;;;;;5003352;28;20712;-74
2022/01/06 13:41:42;;;;;;;21.65;4.57;;;;;;;;;;5028872;28;20045;-75
2022/01/06 13:44:12;;;;;;;15.07;3.55;;;;;;;;;;5030919;28;20078;-75
2022/01/06 13:46:52;;;;;;;18.50;3.60;;;;;;;;;;5024928;28;20017;-75
2022/01/06 13:52:16;;;;;;;15.57;4.30;;;;;;;;;;5025653;28;20055;-75
2022/01/06 13:54:42;;;;;;;19.25;4.20;;;;;;;;;;5026522;28;20508;-75
2022/01/06 13:57:12;;;;;;;10.52;3.38;;;;;;;;;;5027360;28;20036;-76
2022/01/06 13:59:40;;;;;;;19.20;4.30;;;;;;;;;;5026311;28;20082;-76
2022/01/06 14:02:06;;;;;;;12.10;4.05;;;;;;;;;;5024961;28;20021;-77
2022/01/06 14:04:33;;;;;;;16.48;4.55;;;;;;;;;;5003662;28;20044;-75
2022/01/06 14:06:59;;;;;;;14.25;4.05;;;;;;;;;;5023198;28;20779;-75
2022/01/06 14:09:25;;;;;;;14.48;3.25;;;;;;;;;;5023101;28;20040;-74
2022/01/06 14:11:52;;;;;;;14.98;4.13;;;;;;;;;;5020839;28;20015;-80
2022/01/06 14:14:19;;;;;;;15.32;6.32;;;;;;;;;;5023687;28;20096;-75
2022/01/06 14:16:45;;;;;;;23.08;6.47;;;;;;;;;;5024644;28;20025;-74
2022/01/06 14:19:11;;;;;;;21.83;7.70;;;;;;;;;;5025099;28;20456;-75
2022/01/06 14:21:37;;;;;;;16.27;3.97;;;;;;;;;;5021755;28;20021;-74
2022/01/06 14:24:03;;;;;;;14.00;3.30;;;;;;;;;;5026458;28;20055;-75
2022/01/06 14:26:30;;;;;;;17.38;3.67;;;;;;;;;;5026448;28;20040;-77
2022/01/06 14:28:57;;;;;;;20.70;3.47;;;;;;;;;;5030253;28;20174;-76
2022/01/06 14:31:23;;;;;;;12.27;3.05;;;;;;;;;;5028936;28;20028;-77
2022/01/06 14:33:51;;;;;;;19.85;3.65;;;;;;;;;;5023999;28;20106;-75
2022/01/06 14:36:20;;;;;;;16.65;3.53;;;;;;;;;;5024417;28;20052;-75
2022/01/06 14:38:47;;;;;;;8.73;2.53;;;;;;;;;;5026009;28;20059;-74
2022/01/06 14:41:18;;;;;;;14.25;3.72;;;;;;;;;;5024165;28;20115;-77
2022/01/06 14:43:44;;;;;;;16.83;3.63;;;;;;;;;;5023475;28;20030;-75
2022/01/06 14:46:13;;;;;;;13.23;3.55;;;;;;;;;;5022736;28;20021;-75
2022/01/06 14:48:39;;;;;;;12.43;2.95;;;;;;;;;;5024978;28;20136;-76
2022/01/06 14:51:05;;;;;;;15.13;2.63;;;;;;;;;;5021655;28;20024;-77
2022/01/06 14:53:32;;;;;;;13.15;2.65;;;;;;;;;;5022395;28;20044;-77